sensor_id;sensor_type;location;lat;lon;timestamp;pressure;altitude;pressure_sealevel;temperature;humidity
33554;BME280;19885;42.208;24.952;2023-02-11T00:00:15;101837.84;;;-3.76;74.17
33554;BME280;19885;42.208;24.952;2023-02-11T00:02:42;101853.69;;;-3.70;75.56
33554;BME280;19885;42.208;24.952;2023-02-11T00:05:07;101857.13;;;-3.70;74.98
33554;BME280;19885;42.208;24.952;2023-02-11T00:07:34;101864.16;;;-3.67;75.37
33554;BME280;19885;42.208;24.952;2023-02-11T00:10:03;101856.41;;;-3.69;74.28
33554;BME280;19885;42.208;24.952;2023-02-11T00:12:28;101865.53;;;-3.71;75.66
33554;BME280;19885;42.208;24.952;2023-02-11T00:14:56;101867.63;;;-3.67;73.69
33554;BME280;19885;42.208;24.952;2023-02-11T00:17:22;101864.50;;;-3.73;73.29
33554;BME280;19885;42.208;24.952;2023-02-11T00:19:51;101851.25;;;-3.96;73.56
33554;BME280;19885;42.208;24.952;2023-02-11T00:22:16;101821.03;;;-4.10;72.85
33554;BME280;19885;42.208;24.952;2023-02-11T00:24:42;101867.81;;;-3.82;73.55
33554;BME280;19885;42.208;24.952;2023-02-11T00:27:08;101867.06;;;-3.81;73.14
33554;BME280;19885;42.208;24.952;2023-02-11T00:29:36;101862.31;;;-3.95;73.14
33554;BME280;19885;42.208;24.952;2023-02-11T00:32:02;101856.50;;;-4.03;73.34
33554;BME280;19885;42.208;24.952;2023-02-11T00:34:32;101876.22;;;-3.92;73.83
33554;BME280;19885;42.208;24.952;2023-02-11T00:37:00;101850.91;;;-3.90;73.15
33554;BME280;19885;42.208;24.952;2023-02-11T00:39:26;101835.53;;;-4.00;73.47
33554;BME280;19885;42.208;24.952;2023-02-11T00:41:51;101851.94;;;-3.88;73.73
33554;BME280;19885;42.208;24.952;2023-02-11T00:44:17;101857.34;;;-3.85;73.42
33554;BME280;19885;42.208;24.952;2023-02-11T00:46:43;101838.81;;;-4.01;73.24
33554;BME280;19885;42.208;24.952;2023-02-11T00:49:09;101856.16;;;-3.97;72.84
33554;BME280;19885;42.208;24.952;2023-02-11T00:51:34;101853.44;;;-3.90;74.25
33554;BME280;19885;42.208;24.952;2023-02-11T00:54:00;101842.69;;;-3.96;73.55
33554;BME280;19885;42.208;24.952;2023-02-11T00:56:25;101840.00;;;-3.98;74.04
33554;BME280;19885;42.208;24.952;2023-02-11T00:58:59;101845.97;;;-3.97;74.38
33554;BME280;19885;42.208;24.952;2023-02-11T01:01:25;101844.19;;;-3.90;73.40
33554;BME280;19885;42.208;24.952;2023-02-11T01:03:51;101848.09;;;-4.02;73.79
33554;BME280;19885;42.208;24.952;2023-02-11T01:06:17;101840.16;;;-4.13;73.71
33554;BME280;19885;42.208;24.952;2023-02-11T01:08:43;101842.56;;;-4.06;73.76
33554;BME280;19885;42.208;24.952;2023-02-11T01:11:15;101846.28;;;-3.94;74.73
33554;BME280;19885;42.208;24.952;2023-02-11T01:13:41;101835.53;;;-4.00;73.87
33554;BME280;19885;42.208;24.952;2023-02-11T01:16:08;101833.88;;;-4.08;73.23
33554;BME280;19885;42.208;24.952;2023-02-11T01:18:37;101832.72;;;-4.20;73.35
33554;BME280;19885;42.208;24.952;2023-02-11T01:21:03;101824.22;;;-4.29;73.84
33554;BME280;19885;42.208;24.952;2023-02-11T01:23:31;101827.03;;;-4.26;73.62
33554;BME280;19885;42.208;24.952;2023-02-11T01:25:56;101830.47;;;-4.26;73.23
33554;BME280;19885;42.208;24.952;2023-02-11T01:28:26;101830.16;;;-4.29;73.48
33554;BME280;19885;42.208;24.952;2023-02-11T01:30:52;101825.09;;;-4.38;74.14
33554;BME280;19885;42.208;24.952;2023-02-11T01:33:19;101817.78;;;-4.43;73.99
33554;BME280;19885;42.208;24.952;2023-02-11T01:35:45;101824.53;;;-4.44;74.44
33554;BME280;19885;42.208;24.952;2023-02-11T01:38:21;101821.81;;;-4.54;74.43
33554;BME280;19885;42.208;24.952;2023-02-11T01:40:58;101824.66;;;-4.51;74.16
33554;BME280;19885;42.208;24.952;2023-02-11T01:43:31;101825.84;;;-4.56;74.25
33554;BME280;19885;42.208;24.952;2023-02-11T01:48:52;101818.53;;;-4.53;73.77
33554;BME280;19885;42.208;24.952;2023-02-11T01:51:23;101824.81;;;-4.58;73.95
33554;BME280;19885;42.208;24.952;2023-02-11T01:53:49;101798.81;;;-4.64;73.73
33554;BME280;19885;42.208;24.952;2023-02-11T01:56:38;101822.59;;;-4.55;73.91
33554;BME280;19885;42.208;24.952;2023-02-11T01:59:35;101829.63;;;-4.52;73.41
33554;BME280;19885;42.208;24.952;2023-02-11T02:02:07;101838.88;;;-4.87;73.42
33554;BME280;19885;42.208;24.952;2023-02-11T02:04:40;101832.59;;;-4.56;73.79
33554;BME280;19885;42.208;24.952;2023-02-11T02:07:15;101819.41;;;-4.61;73.93
33554;BME280;19885;42.208;24.952;2023-02-11T02:09:48;101818.56;;;-4.61;73.25
33554;BME280;19885;42.208;24.952;2023-02-11T02:12:17;101811.34;;;-4.74;73.62
33554;BME280;19885;42.208;24.952;2023-02-11T02:14:42;101811.34;;;-4.74;73.07
33554;BME280;19885;42.208;24.952;2023-02-11T02:17:36;101817.50;;;-4.80;74.53
33554;BME280;19885;42.208;24.952;2023-02-11T02:20:24;101819.75;;;-4.75;74.97
33554;BME280;19885;42.208;24.952;2023-02-11T02:26:26;101822.56;;;-4.80;73.86
33554;BME280;19885;42.208;24.952;2023-02-11T02:32:10;101810.47;;;-4.91;74.71
33554;BME280;19885;42.208;24.952;2023-02-11T02:40:46;101835.69;;;-5.01;76.03
33554;BME280;19885;42.208;24.952;2023-02-11T02:43:14;101843.03;;;-4.96;75.45
33554;BME280;19885;42.208;24.952;2023-02-11T02:45:41;101840.63;;;-5.03;74.85
33554;BME280;19885;42.208;24.952;2023-02-11T02:48:20;101830.59;;;-5.10;75.39
33554;BME280;19885;42.208;24.952;2023-02-11T02:50:48;101840.31;;;-5.06;75.23
33554;BME280;19885;42.208;24.952;2023-02-11T02:53:34;101844.81;;;-5.12;76.70
33554;BME280;19885;42.208;24.952;2023-02-11T02:59:30;101837.00;;;-5.22;74.99
33554;BME280;19885;42.208;24.952;2023-02-11T03:04:35;101833.38;;;-5.33;76.46
33554;BME280;19885;42.208;24.952;2023-02-11T03:07:14;101834.44;;;-5.31;76.58
33554;BME280;19885;42.208;24.952;2023-02-11T03:10:01;101832.50;;;-5.25;76.95
33554;BME280;19885;42.208;24.952;2023-02-11T03:12:32;101821.41;;;-5.42;76.63
33554;BME280;19885;42.208;24.952;2023-02-11T03:15:00;101814.94;;;-5.47;75.93
33554;BME280;19885;42.208;24.952;2023-02-11T03:17:28;101816.66;;;-5.22;76.72
33554;BME280;19885;42.208;24.952;2023-02-11T03:19:59;101816.06;;;-5.20;76.67
33554;BME280;19885;42.208;24.952;2023-02-11T03:23:10;101816.53;;;-5.15;76.31
33554;BME280;19885;42.208;24.952;2023-02-11T03:25:40;101824.34;;;-5.14;77.26
33554;BME280;19885;42.208;24.952;2023-02-11T03:34:17;101830.88;;;-5.24;76.55
33554;BME280;19885;42.208;24.952;2023-02-11T03:37:06;101822.19;;;-5.35;75.69
33554;BME280;19885;42.208;24.952;2023-02-11T03:39:39;101824.13;;;-5.32;75.32
33554;BME280;19885;42.208;24.952;2023-02-11T03:42:09;101826.19;;;-5.45;76.58
33554;BME280;19885;42.208;24.952;2023-02-11T03:44:41;101829.00;;;-5.51;76.27
33554;BME280;19885;42.208;24.952;2023-02-11T03:47:09;101815.84;;;-5.55;77.23
33554;BME280;19885;42.208;24.952;2023-02-11T03:49:41;101815.97;;;-5.54;77.80
33554;BME280;19885;42.208;24.952;2023-02-11T03:52:10;101827.81;;;-5.54;77.22
33554;BME280;19885;42.208;24.952;2023-02-11T03:54:38;101824.66;;;-5.52;77.15
33554;BME280;19885;42.208;24.952;2023-02-11T03:57:05;101815.69;;;-5.57;77.10
33554;BME280;19885;42.208;24.952;2023-02-11T03:59:30;101829.13;;;-5.49;76.79
33554;BME280;19885;42.208;24.952;2023-02-11T04:01:56;101830.94;;;-5.48;77.51
33554;BME280;19885;42.208;24.952;2023-02-11T04:04:24;101824.25;;;-5.48;77.46
33554;BME280;19885;42.208;24.952;2023-02-11T04:06:49;101811.09;;;-5.52;77.06
33554;BME280;19885;42.208;24.952;2023-02-11T04:09:17;101813.91;;;-5.49;77.39
33554;BME280;19885;42.208;24.952;2023-02-11T04:11:45;101804.97;;;-5.54;77.73
33554;BME280;19885;42.208;24.952;2023-02-11T04:14:13;101818.97;;;-5.49;77.39
33554;BME280;19885;42.208;24.952;2023-02-11T04:16:41;101819.31;;;-5.46;77.17
33554;BME280;19885;42.208;24.952;2023-02-11T04:19:07;101822.88;;;-5.44;78.32
33554;BME280;19885;42.208;24.952;2023-02-11T04:21:32;101819.75;;;-5.50;78.44
33554;BME280;19885;42.208;24.952;2023-02-11T04:23:58;101814.53;;;-5.43;77.88
33554;BME280;19885;42.208;24.952;2023-02-11T04:26:23;101804.50;;;-5.50;77.66
33554;BME280;19885;42.208;24.952;2023-02-11T04:28:49;101814.38;;;-5.45;77.83
33554;BME280;19885;42.208;24.952;2023-02-11T04:31:15;101813.31;;;-5.47;77.58
33554;BME280;19885;42.208;24.952;2023-02-11T04:33:40;101810.31;;;-5.51;76.88
33554;BME280;19885;42.208;24.952;2023-02-11T04:36:07;101796.56;;;-5.53;76.26
33554;BME280;19885;42.208;24.952;2023-02-11T04:38:32;101803.75;;;-5.49;77.33
33554;BME280;19885;42.208;24.952;2023-02-11T04:40:58;101787.00;;;-5.64;77.26
33554;BME280;19885;42.208;24.952;2023-02-11T04:43:24;101814.66;;;-5.50;77.63
33554;BME280;19885;42.208;24.952;2023-02-11T04:45:50;101807.63;;;-5.53;77.29
33554;BME280;19885;42.208;24.952;2023-02-11T04:48:16;101810.75;;;-5.55;77.24
33554;BME280;19885;42.208;24.952;2023-02-11T04:50:41;101804.91;;;-5.63;77.58
33554;BME280;19885;42.208;24.952;2023-02-11T04:53:07;101797.72;;;-5.67;77.37
33554;BME280;19885;42.208;24.952;2023-02-11T04:55:34;101804.31;;;-5.60;77.18
33554;BME280;19885;42.208;24.952;2023-02-11T04:57:59;101797.47;;;-5.61;77.87
33554;BME280;19885;42.208;24.952;2023-02-11T05:00:25;101772.91;;;-5.78;77.15
33554;BME280;19885;42.208;24.952;2023-02-11T05:02:50;101800.16;;;-5.60;77.17
33554;BME280;19885;42.208;24.952;2023-02-11T05:05:16;101799.53;;;-5.66;77.04
33554;BME280;19885;42.208;24.952;2023-02-11T05:07:42;101807.84;;;-5.75;77.32
33554;BME280;19885;42.208;24.952;2023-02-11T05:10:07;101810.09;;;-5.70;76.61
33554;BME280;19885;42.208;24.952;2023-02-11T05:12:33;101731.25;;;-6.30;76.83
33554;BME280;19885;42.208;24.952;2023-02-11T05:14:58;101811.69;;;-5.79;77.28
33554;BME280;19885;42.208;24.952;2023-02-11T05:17:24;101801.72;;;-5.86;77.12
33554;BME280;19885;42.208;24.952;2023-02-11T05:19:49;101813.19;;;-5.81;77.77
33554;BME280;19885;42.208;24.952;2023-02-11T05:22:15;101803.63;;;-5.84;77.62
33554;BME280;19885;42.208;24.952;2023-02-11T05:24:40;101815.91;;;-5.80;78.18
33554;BME280;19885;42.208;24.952;2023-02-11T05:27:06;101810.06;;;-5.79;78.16
33554;BME280;19885;42.208;24.952;2023-02-11T05:29:31;101780.31;;;-5.97;77.92
33554;BME280;19885;42.208;24.952;2023-02-11T05:31:58;101806.38;;;-5.73;78.49
33554;BME280;19885;42.208;24.952;2023-02-11T05:34:24;101807.38;;;-5.80;77.71
33554;BME280;19885;42.208;24.952;2023-02-11T05:36:50;101801.44;;;-5.72;77.40
33554;BME280;19885;42.208;24.952;2023-02-11T05:39:15;101807.19;;;-5.57;77.04
33554;BME280;19885;42.208;24.952;2023-02-11T05:41:41;101806.28;;;-5.49;76.94
33554;BME280;19885;42.208;24.952;2023-02-11T05:44:07;101803.75;;;-5.49;76.72
33554;BME280;19885;42.208;24.952;2023-02-11T05:46:32;101796.56;;;-5.53;76.62
33554;BME280;19885;42.208;24.952;2023-02-11T05:48:58;101806.88;;;-5.52;75.96
33554;BME280;19885;42.208;24.952;2023-02-11T05:51:24;101820.19;;;-5.54;76.44
33554;BME280;19885;42.208;24.952;2023-02-11T05:53:49;101819.25;;;-5.63;77.48
33554;BME280;19885;42.208;24.952;2023-02-11T05:56:15;101815.84;;;-5.55;78.42
33554;BME280;19885;42.208;24.952;2023-02-11T05:58:41;101817.56;;;-5.30;77.60
33554;BME280;19885;42.208;24.952;2023-02-11T06:01:07;101808.31;;;-5.30;76.77
33554;BME280;19885;42.208;24.952;2023-02-11T06:03:32;101820.75;;;-5.07;77.75
33554;BME280;19885;42.208;24.952;2023-02-11T06:05:58;101814.81;;;-4.82;77.18
33554;BME280;19885;42.208;24.952;2023-02-11T06:08:23;101805.69;;;-4.46;76.24
33554;BME280;19885;42.208;24.952;2023-02-11T06:10:49;101809.69;;;-3.78;72.78
33554;BME280;19885;42.208;24.952;2023-02-11T06:13:15;101805.72;;;-3.57;71.06
33554;BME280;19885;42.208;24.952;2023-02-11T06:15:42;101815.63;;;-3.60;71.44
33554;BME280;19885;42.208;24.952;2023-02-11T06:18:09;101818.03;;;-3.70;71.83
33554;BME280;19885;42.208;24.952;2023-02-11T06:20:34;101824.06;;;-3.78;72.08
33554;BME280;19885;42.208;24.952;2023-02-11T06:23:00;101747.72;;;-4.31;72.98
33554;BME280;19885;42.208;24.952;2023-02-11T06:25:25;101821.88;;;-3.92;73.69
33554;BME280;19885;42.208;24.952;2023-02-11T06:27:51;101823.94;;;-3.88;75.11
33554;BME280;19885;42.208;24.952;2023-02-11T06:30:16;101814.53;;;-3.89;74.92
33554;BME280;19885;42.208;24.952;2023-02-11T06:32:42;101826.47;;;-3.80;75.11
33554;BME280;19885;42.208;24.952;2023-02-11T06:35:08;101828.22;;;-3.70;74.65
33554;BME280;19885;42.208;24.952;2023-02-11T06:37:34;101824.91;;;-3.61;74.77
33554;BME280;19885;42.208;24.952;2023-02-11T06:39:59;101831.31;;;-3.55;75.15
33554;BME280;19885;42.208;24.952;2023-02-11T06:42:25;101836.84;;;-3.51;75.21
33554;BME280;19885;42.208;24.952;2023-02-11T06:44:50;101813.50;;;-3.55;75.17
33554;BME280;19885;42.208;24.952;2023-02-11T06:47:16;101811.38;;;-3.51;75.42
33554;BME280;19885;42.208;24.952;2023-02-11T06:49:41;101817.00;;;-3.36;76.53
33554;BME280;19885;42.208;24.952;2023-02-11T06:52:06;101816.38;;;-3.34;75.69
33554;BME280;19885;42.208;24.952;2023-02-11T06:54:32;101808.84;;;-3.24;75.69
33554;BME280;19885;42.208;24.952;2023-02-11T06:56:57;101800.38;;;-3.14;75.89
33554;BME280;19885;42.208;24.952;2023-02-11T06:59:23;101789.56;;;-3.12;76.02
33554;BME280;19885;42.208;24.952;2023-02-11T07:01:48;101801.25;;;-2.86;76.42
33554;BME280;19885;42.208;24.952;2023-02-11T07:04:14;101751.75;;;-2.88;73.91
33554;BME280;19885;42.208;24.952;2023-02-11T07:06:43;101783.72;;;-2.55;73.79
33554;BME280;19885;42.208;24.952;2023-02-11T07:09:09;101795.63;;;-2.45;74.22
33554;BME280;19885;42.208;24.952;2023-02-11T07:11:35;101788.66;;;-2.38;73.70
33554;BME280;19885;42.208;24.952;2023-02-11T07:14:03;101765.78;;;-2.46;74.53
33554;BME280;19885;42.208;24.952;2023-02-11T07:16:30;101794.13;;;-2.14;73.78
33554;BME280;19885;42.208;24.952;2023-02-11T07:18:57;101807.09;;;-1.93;73.76
33554;BME280;19885;42.208;24.952;2023-02-11T07:21:23;101804.69;;;-1.42;71.07
33554;BME280;19885;42.208;24.952;2023-02-11T07:23:49;101797.28;;;-0.69;69.55
33554;BME280;19885;42.208;24.952;2023-02-11T07:26:18;101795.13;;;0.31;65.46
33554;BME280;19885;42.208;24.952;2023-02-11T07:28:45;101763.38;;;0.95;62.29
33554;BME280;19885;42.208;24.952;2023-02-11T07:31:17;101790.22;;;1.68;59.68
33554;BME280;19885;42.208;24.952;2023-02-11T07:33:43;101791.38;;;2.31;57.42
33554;BME280;19885;42.208;24.952;2023-02-11T07:36:14;101776.44;;;2.50;56.50
33554;BME280;19885;42.208;24.952;2023-02-11T07:38:41;101762.16;;;2.67;55.92
33554;BME280;19885;42.208;24.952;2023-02-11T07:41:11;101774.09;;;2.78;55.71
33554;BME280;19885;42.208;24.952;2023-02-11T07:43:38;101770.09;;;2.70;55.92
33554;BME280;19885;42.208;24.952;2023-02-11T07:46:11;101775.19;;;2.81;55.59
33554;BME280;19885;42.208;24.952;2023-02-11T07:48:37;101770.75;;;3.30;54.45
33554;BME280;19885;42.208;24.952;2023-02-11T07:51:11;101764.00;;;4.10;52.85
33554;BME280;19885;42.208;24.952;2023-02-11T07:53:40;101758.13;;;4.54;51.66
33554;BME280;19885;42.208;24.952;2023-02-11T07:56:09;101698.53;;;4.51;50.93
33554;BME280;19885;42.208;24.952;2023-02-11T07:58:37;101762.22;;;4.65;52.35
33554;BME280;19885;42.208;24.952;2023-02-11T08:01:05;101760.84;;;4.57;51.82
33554;BME280;19885;42.208;24.952;2023-02-11T08:03:35;101756.81;;;4.75;51.89
33554;BME280;19885;42.208;24.952;2023-02-11T08:06:05;101753.56;;;4.92;50.75
33554;BME280;19885;42.208;24.952;2023-02-11T08:08:31;101753.41;;;5.33;49.76
33554;BME280;19885;42.208;24.952;2023-02-11T08:10:57;101751.56;;;5.90;47.59
33554;BME280;19885;42.208;24.952;2023-02-11T08:13:23;101743.28;;;6.12;48.02
33554;BME280;19885;42.208;24.952;2023-02-11T08:15:51;101739.00;;;6.12;46.64
33554;BME280;19885;42.208;24.952;2023-02-11T08:18:17;101735.94;;;6.19;44.70
33554;BME280;19885;42.208;24.952;2023-02-11T08:20:42;101744.56;;;6.04;45.67
33554;BME280;19885;42.208;24.952;2023-02-11T08:23:10;101738.31;;;6.47;45.34
33554;BME280;19885;42.208;24.952;2023-02-11T08:25:36;101734.09;;;6.49;44.72
33554;BME280;19885;42.208;24.952;2023-02-11T08:28:01;101735.13;;;6.36;44.95
33554;BME280;19885;42.208;24.952;2023-02-11T08:30:27;101733.22;;;6.65;45.33
33554;BME280;19885;42.208;24.952;2023-02-11T08:32:52;101733.41;;;5.59;46.82
33554;BME280;19885;42.208;24.952;2023-02-11T08:35:18;101741.53;;;5.82;46.27
33554;BME280;19885;42.208;24.952;2023-02-11T08:37:44;101739.31;;;5.42;47.15
33554;BME280;19885;42.208;24.952;2023-02-11T08:40:09;101738.50;;;5.14;47.52
33554;BME280;19885;42.208;24.952;2023-02-11T08:42:35;101732.97;;;5.52;47.39
33554;BME280;19885;42.208;24.952;2023-02-11T08:45:00;101722.59;;;5.66;47.04
33554;BME280;19885;42.208;24.952;2023-02-11T08:47:26;101722.34;;;5.62;47.82
33554;BME280;19885;42.208;24.952;2023-02-11T08:49:52;101734.25;;;5.89;46.85
33554;BME280;19885;42.208;24.952;2023-02-11T08:52:17;101729.63;;;5.69;47.46
33554;BME280;19885;42.208;24.952;2023-02-11T08:54:45;101707.53;;;6.05;46.33
33554;BME280;19885;42.208;24.952;2023-02-11T08:57:11;101720.00;;;6.60;45.40
33554;BME280;19885;42.208;24.952;2023-02-11T08:59:37;101713.00;;;6.91;44.78
33554;BME280;19885;42.208;24.952;2023-02-11T09:02:04;101714.53;;;7.04;43.71
33554;BME280;19885;42.208;24.952;2023-02-11T09:04:30;101672.63;;;6.79;43.43
33554;BME280;19885;42.208;24.952;2023-02-11T09:06:56;101702.09;;;7.14;42.42
33554;BME280;19885;42.208;24.952;2023-02-11T09:09:21;101702.09;;;7.14;43.30
33554;BME280;19885;42.208;24.952;2023-02-11T09:11:47;101700.06;;;7.43;42.95
33554;BME280;19885;42.208;24.952;2023-02-11T09:14:19;101701.81;;;7.44;41.43
33554;BME280;19885;42.208;24.952;2023-02-11T09:16:46;101707.63;;;7.56;42.05
33554;BME280;19885;42.208;24.952;2023-02-11T09:19:11;101696.19;;;7.35;41.25
33554;BME280;19885;42.208;24.952;2023-02-11T09:21:37;101691.63;;;7.29;42.00
33554;BME280;19885;42.208;24.952;2023-02-11T09:24:03;101693.88;;;7.41;42.40
33554;BME280;19885;42.208;24.952;2023-02-11T09:26:32;101651.88;;;7.30;42.79
33554;BME280;19885;42.208;24.952;2023-02-11T09:28:58;101676.94;;;7.65;42.39
33554;BME280;19885;42.208;24.952;2023-02-11T09:31:25;101674.50;;;7.87;41.53
33554;BME280;19885;42.208;24.952;2023-02-11T09:33:55;101673.81;;;7.72;40.12
33554;BME280;19885;42.208;24.952;2023-02-11T09:36:33;101667.13;;;7.59;41.19
33554;BME280;19885;42.208;24.952;2023-02-11T09:39:04;101674.88;;;7.40;40.85
33554;BME280;19885;42.208;24.952;2023-02-11T09:44:20;101662.94;;;7.26;41.80
33554;BME280;19885;42.208;24.952;2023-02-11T09:46:53;101649.50;;;6.99;42.97
33554;BME280;19885;42.208;24.952;2023-02-11T09:49:24;101654.84;;;7.38;43.42
33554;BME280;19885;42.208;24.952;2023-02-11T09:52:06;101655.09;;;7.42;41.55
33554;BME280;19885;42.208;24.952;2023-02-11T09:54:36;101632.31;;;7.91;41.91
33554;BME280;19885;42.208;24.952;2023-02-11T09:57:03;101622.22;;;8.16;40.41
33554;BME280;19885;42.208;24.952;2023-02-11T09:59:30;101626.34;;;8.30;40.40
33554;BME280;19885;42.208;24.952;2023-02-11T10:01:59;101614.31;;;8.32;38.96
33554;BME280;19885;42.208;24.952;2023-02-11T10:12:39;101602.75;;;7.51;39.86
33554;BME280;19885;42.208;24.952;2023-02-11T10:21:05;101565.63;;;8.09;37.58
33554;BME280;19885;42.208;24.952;2023-02-11T10:23:35;101572.63;;;8.10;37.88
33554;BME280;19885;42.208;24.952;2023-02-11T10:26:02;101561.38;;;8.11;37.81
33554;BME280;19885;42.208;24.952;2023-02-11T10:28:35;101557.19;;;7.94;37.26
33554;BME280;19885;42.208;24.952;2023-02-11T10:31:46;101558.34;;;8.01;39.02
33554;BME280;19885;42.208;24.952;2023-02-11T10:34:03;101544.13;;;8.31;37.57
33554;BME280;19885;42.208;24.952;2023-02-11T10:36:36;101536.97;;;8.87;38.86
33554;BME280;19885;42.208;24.952;2023-02-11T10:41:43;101529.84;;;9.04;37.41
33554;BME280;19885;42.208;24.952;2023-02-11T10:44:29;101521.78;;;8.98;35.33
33554;BME280;19885;42.208;24.952;2023-02-11T10:46:58;101518.38;;;8.99;35.47
33554;BME280;19885;42.208;24.952;2023-02-11T10:49:44;101510.56;;;8.77;35.59
33554;BME280;19885;42.208;24.952;2023-02-11T10:54:39;101487.72;;;8.90;35.63
33554;BME280;19885;42.208;24.952;2023-02-11T10:57:05;101487.97;;;8.98;35.34
33554;BME280;19885;42.208;24.952;2023-02-11T10:59:36;101490.34;;;8.92;35.57
33554;BME280;19885;42.208;24.952;2023-02-11T11:02:32;101487.75;;;9.14;35.34
33554;BME280;19885;42.208;24.952;2023-02-11T11:05:06;101471.78;;;9.05;34.51
33554;BME280;19885;42.208;24.952;2023-02-11T11:07:50;101463.09;;;9.04;35.33
33554;BME280;19885;42.208;24.952;2023-02-11T11:12:51;101462.22;;;9.26;35.92
33554;BME280;19885;42.208;24.952;2023-02-11T11:15:22;101471.31;;;8.93;35.99
33554;BME280;19885;42.208;24.952;2023-02-11T11:18:10;101439.41;;;9.19;35.18
33554;BME280;19885;42.208;24.952;2023-02-11T11:20:37;101450.72;;;9.43;34.16
33554;BME280;19885;42.208;24.952;2023-02-11T11:23:18;101438.28;;;9.58;34.62
33554;BME280;19885;42.208;24.952;2023-02-11T11:25:59;101445.97;;;9.55;33.27
33554;BME280;19885;42.208;24.952;2023-02-11T11:28:27;101439.88;;;9.55;34.40
33554;BME280;19885;42.208;24.952;2023-02-11T11:30:54;101444.56;;;9.41;33.37
33554;BME280;19885;42.208;24.952;2023-02-11T11:33:26;101424.53;;;9.15;33.88
33554;BME280;19885;42.208;24.952;2023-02-11T11:38:24;101425.47;;;9.64;33.25
33554;BME280;19885;42.208;24.952;2023-02-11T11:41:16;101423.81;;;9.66;33.96
33554;BME280;19885;42.208;24.952;2023-02-11T11:46:46;101394.28;;;10.15;34.57
33554;BME280;19885;42.208;24.952;2023-02-11T11:49:19;101401.19;;;10.41;31.16
33554;BME280;19885;42.208;24.952;2023-02-11T11:51:57;101394.66;;;10.27;33.03
33554;BME280;19885;42.208;24.952;2023-02-11T11:54:32;101394.00;;;10.34;34.26
33554;BME280;19885;42.208;24.952;2023-02-11T11:57:02;101379.53;;;10.42;31.56
33554;BME280;19885;42.208;24.952;2023-02-11T11:59:31;101379.22;;;10.59;32.36
33554;BME280;19885;42.208;24.952;2023-02-11T12:05:24;101358.81;;;10.46;31.89
33554;BME280;19885;42.208;24.952;2023-02-11T12:08:18;101365.13;;;10.81;29.14
33554;BME280;19885;42.208;24.952;2023-02-11T12:11:17;101358.00;;;10.77;28.44
33554;BME280;19885;42.208;24.952;2023-02-11T12:16:39;101309.97;;;10.41;31.00
33554;BME280;19885;42.208;24.952;2023-02-11T12:19:34;101349.78;;;10.35;30.06
33554;BME280;19885;42.208;24.952;2023-02-11T12:24:52;101340.63;;;9.69;29.91
33554;BME280;19885;42.208;24.952;2023-02-11T12:27:32;101344.03;;;9.68;31.32
33554;BME280;19885;42.208;24.952;2023-02-11T12:30:17;101338.41;;;9.31;30.02
33554;BME280;19885;42.208;24.952;2023-02-11T12:33:02;101331.06;;;8.96;31.24
33554;BME280;19885;42.208;24.952;2023-02-11T12:38:24;101325.03;;;9.46;30.77
33554;BME280;19885;42.208;24.952;2023-02-11T12:52:59;101239.25;;;8.73;30.55
33554;BME280;19885;42.208;24.952;2023-02-11T12:55:34;101308.03;;;9.06;31.60
33554;BME280;19885;42.208;24.952;2023-02-11T12:58:22;101315.78;;;9.28;31.50
33554;BME280;19885;42.208;24.952;2023-02-11T13:01:25;101305.81;;;9.17;30.48
33554;BME280;19885;42.208;24.952;2023-02-11T13:04:03;101290.31;;;8.95;29.27
33554;BME280;19885;42.208;24.952;2023-02-11T13:06:39;101237.53;;;8.28;29.53
33554;BME280;19885;42.208;24.952;2023-02-11T13:09:12;101294.19;;;8.84;30.81
33554;BME280;19885;42.208;24.952;2023-02-11T13:11:45;101285.22;;;9.23;30.46
33554;BME280;19885;42.208;24.952;2023-02-11T13:14:42;101289.84;;;9.31;29.00
33554;BME280;19885;42.208;24.952;2023-02-11T13:17:16;101282.94;;;9.32;29.59
33554;BME280;19885;42.208;24.952;2023-02-11T13:19:58;101272.69;;;9.37;28.79
33554;BME280;19885;42.208;24.952;2023-02-11T13:22:32;101272.88;;;8.92;28.23
33554;BME280;19885;42.208;24.952;2023-02-11T13:25:35;101275.84;;;9.03;28.67
33554;BME280;19885;42.208;24.952;2023-02-11T13:31:01;101275.81;;;9.01;28.86
33554;BME280;19885;42.208;24.952;2023-02-11T13:33:35;101266.69;;;9.14;28.22
33554;BME280;19885;42.208;24.952;2023-02-11T13:38:28;101269.22;;;8.87;28.67
33554;BME280;19885;42.208;24.952;2023-02-11T13:41:01;101261.97;;;8.79;27.99
33554;BME280;19885;42.208;24.952;2023-02-11T13:43:30;101246.66;;;8.63;28.25
33554;BME280;19885;42.208;24.952;2023-02-11T13:55:23;101253.69;;;9.14;28.78
33554;BME280;19885;42.208;24.952;2023-02-11T14:14:31;101225.50;;;9.01;28.70
33554;BME280;19885;42.208;24.952;2023-02-11T14:20:29;101217.56;;;8.96;27.55
33554;BME280;19885;42.208;24.952;2023-02-11T14:22:40;101218.28;;;8.92;28.01
33554;BME280;19885;42.208;24.952;2023-02-11T14:25:17;101216.34;;;8.87;27.16
33554;BME280;19885;42.208;24.952;2023-02-11T14:28:01;101205.63;;;8.78;27.49
33554;BME280;19885;42.208;24.952;2023-02-11T14:30:40;101196.88;;;8.76;28.20
33554;BME280;19885;42.208;24.952;2023-02-11T14:33:23;101195.63;;;8.65;27.80
33554;BME280;19885;42.208;24.952;2023-02-11T14:37:09;101211.25;;;8.66;28.75
33554;BME280;19885;42.208;24.952;2023-02-11T14:39:31;101199.75;;;8.59;27.90
33554;BME280;19885;42.208;24.952;2023-02-11T14:42:03;101197.38;;;8.66;28.11
33554;BME280;19885;42.208;24.952;2023-02-11T14:44:30;101193.47;;;8.53;28.04
33554;BME280;19885;42.208;24.952;2023-02-11T14:46:57;101200.31;;;8.51;28.24
33554;BME280;19885;42.208;24.952;2023-02-11T14:49:26;101201.09;;;8.48;28.05
33554;BME280;19885;42.208;24.952;2023-02-11T14:51:55;101198.03;;;8.36;28.38
33554;BME280;19885;42.208;24.952;2023-02-11T14:54:26;101197.94;;;8.33;28.23
33554;BME280;19885;42.208;24.952;2023-02-11T14:59:30;101202.88;;;8.49;28.06